sensor_id;sensor_type;location;lat;lon;timestamp;P1;durP1;ratioP1;P2;durP2;ratioP2
11865;SDS011;5992;52.744;6.898;2022-10-31T00:00:07;5.45;;;4.80;;
11865;SDS011;5992;52.744;6.898;2022-10-31T00:03:44;6.95;;;4.85;;
11865;SDS011;5992;52.744;6.898;2022-10-31T00:06:51;6.07;;;5.00;;
11865;SDS011;5992;52.744;6.898;2022-10-31T00:10:13;6.60;;;4.95;;
11865;SDS011;5992;52.744;6.898;2022-10-31T00:13:22;5.03;;;4.40;;
11865;SDS011;5992;52.744;6.898;2022-10-31T00:16:58;5.20;;;4.57;;
11865;SDS011;5992;52.744;6.898;2022-10-31T00:20:02;7.20;;;4.80;;
11865;SDS011;5992;52.744;6.898;2022-10-31T00:23:34;5.73;;;4.60;;
11865;SDS011;5992;52.744;6.898;2022-10-31T00:26:53;8.03;;;5.30;;
11865;SDS011;5992;52.744;6.898;2022-10-31T00:33:34;6.10;;;4.90;;
11865;SDS011;5992;52.744;6.898;2022-10-31T00:37:04;5.63;;;4.27;;
11865;SDS011;5992;52.744;6.898;2022-10-31T00:40:23;6.67;;;4.50;;
11865;SDS011;5992;52.744;6.898;2022-10-31T00:43:45;5.80;;;4.57;;
11865;SDS011;5992;52.744;6.898;2022-10-31T00:47:07;5.10;;;4.50;;
11865;SDS011;5992;52.744;6.898;2022-10-31T00:50:28;5.70;;;4.33;;
11865;SDS011;5992;52.744;6.898;2022-10-31T00:53:47;7.65;;;4.50;;
11865;SDS011;5992;52.744;6.898;2022-10-31T00:57:15;5.53;;;4.23;;
11865;SDS011;5992;52.744;6.898;2022-10-31T01:00:31;7.25;;;5.15;;
11865;SDS011;5992;52.744;6.898;2022-10-31T01:03:48;6.33;;;4.80;;
11865;SDS011;5992;52.744;6.898;2022-10-31T01:06:57;5.80;;;4.43;;
11865;SDS011;5992;52.744;6.898;2022-10-31T01:10:29;5.47;;;4.23;;
11865;SDS011;5992;52.744;6.898;2022-10-31T01:13:36;7.20;;;4.35;;
11865;SDS011;5992;52.744;6.898;2022-10-31T01:16:55;5.73;;;4.27;;
11865;SDS011;5992;52.744;6.898;2022-10-31T01:19:59;6.20;;;4.05;;
11865;SDS011;5992;52.744;6.898;2022-10-31T01:23:24;5.27;;;4.10;;
11865;SDS011;5992;52.744;6.898;2022-10-31T01:26:54;5.87;;;4.07;;
11865;SDS011;5992;52.744;6.898;2022-10-31T01:30:13;6.87;;;4.60;;
11865;SDS011;5992;52.744;6.898;2022-10-31T01:33:17;7.55;;;5.70;;
11865;SDS011;5992;52.744;6.898;2022-10-31T01:36:34;6.57;;;4.27;;
11865;SDS011;5992;52.744;6.898;2022-10-31T01:43:22;4.57;;;4.17;;
11865;SDS011;5992;52.744;6.898;2022-10-31T01:46:38;5.87;;;4.30;;
11865;SDS011;5992;52.744;6.898;2022-10-31T01:50:24;6.03;;;4.57;;
11865;SDS011;5992;52.744;6.898;2022-10-31T01:53:42;7.23;;;4.23;;
11865;SDS011;5992;52.744;6.898;2022-10-31T01:57:20;6.35;;;4.75;;
11865;SDS011;5992;52.744;6.898;2022-10-31T02:00:41;7.53;;;5.90;;
11865;SDS011;5992;52.744;6.898;2022-10-31T02:04:15;5.50;;;3.87;;
11865;SDS011;5992;52.744;6.898;2022-10-31T02:07:45;7.50;;;4.33;;
11865;SDS011;5992;52.744;6.898;2022-10-31T02:11:17;7.00;;;4.45;;
11865;SDS011;5992;52.744;6.898;2022-10-31T02:14:23;4.30;;;3.90;;
11865;SDS011;5992;52.744;6.898;2022-10-31T02:17:59;4.20;;;3.75;;
11865;SDS011;5992;52.744;6.898;2022-10-31T02:21:19;4.70;;;4.20;;
11865;SDS011;5992;52.744;6.898;2022-10-31T02:25:01;4.67;;;3.97;;
11865;SDS011;5992;52.744;6.898;2022-10-31T02:28:32;4.23;;;3.83;;
11865;SDS011;5992;52.744;6.898;2022-10-31T02:32:08;4.97;;;4.47;;
11865;SDS011;5992;52.744;6.898;2022-10-31T02:35:44;4.30;;;3.75;;
11865;SDS011;5992;52.744;6.898;2022-10-31T02:39:12;6.80;;;4.13;;
11865;SDS011;5992;52.744;6.898;2022-10-31T02:42:48;4.77;;;3.90;;
11865;SDS011;5992;52.744;6.898;2022-10-31T02:46:23;4.50;;;4.10;;
11865;SDS011;5992;52.744;6.898;2022-10-31T02:49:42;4.43;;;4.03;;
11865;SDS011;5992;52.744;6.898;2022-10-31T02:53:15;5.75;;;4.30;;
11865;SDS011;5992;52.744;6.898;2022-10-31T02:56:45;4.45;;;3.75;;
11865;SDS011;5992;52.744;6.898;2022-10-31T03:00:19;3.95;;;3.50;;
11865;SDS011;5992;52.744;6.898;2022-10-31T03:03:57;4.20;;;3.83;;
11865;SDS011;5992;52.744;6.898;2022-10-31T03:07:34;4.37;;;3.60;;
11865;SDS011;5992;52.744;6.898;2022-10-31T03:11:08;6.97;;;4.23;;
11865;SDS011;5992;52.744;6.898;2022-10-31T03:14:41;6.67;;;3.43;;
11865;SDS011;5992;52.744;6.898;2022-10-31T03:18:21;3.90;;;3.60;;
11865;SDS011;5992;52.744;6.898;2022-10-31T03:21:56;4.60;;;3.90;;
11865;SDS011;5992;52.744;6.898;2022-10-31T03:25:19;3.80;;;3.47;;
11865;SDS011;5992;52.744;6.898;2022-10-31T03:28:53;4.53;;;4.00;;
11865;SDS011;5992;52.744;6.898;2022-10-31T03:32:21;4.27;;;3.67;;
11865;SDS011;5992;52.744;6.898;2022-10-31T03:35:53;4.00;;;3.70;;
11865;SDS011;5992;52.744;6.898;2022-10-31T03:39:24;6.60;;;3.77;;
11865;SDS011;5992;52.744;6.898;2022-10-31T03:42:50;4.17;;;3.77;;
11865;SDS011;5992;52.744;6.898;2022-10-31T03:46:19;4.67;;;3.73;;
11865;SDS011;5992;52.744;6.898;2022-10-31T03:49:54;5.13;;;4.00;;
11865;SDS011;5992;52.744;6.898;2022-10-31T03:53:25;4.00;;;3.57;;
11865;SDS011;5992;52.744;6.898;2022-10-31T03:57:00;8.73;;;4.20;;
11865;SDS011;5992;52.744;6.898;2022-10-31T04:00:32;5.97;;;3.77;;
11865;SDS011;5992;52.744;6.898;2022-10-31T04:04:10;3.47;;;3.17;;
11865;SDS011;5992;52.744;6.898;2022-10-31T04:07:29;5.80;;;3.83;;
11865;SDS011;5992;52.744;6.898;2022-10-31T04:11:03;4.23;;;3.63;;
11865;SDS011;5992;52.744;6.898;2022-10-31T04:14:39;3.55;;;3.25;;
11865;SDS011;5992;52.744;6.898;2022-10-31T04:18:11;4.05;;;3.45;;
11865;SDS011;5992;52.744;6.898;2022-10-31T04:21:42;4.00;;;3.53;;
11865;SDS011;5992;52.744;6.898;2022-10-31T04:25:04;5.60;;;3.93;;
11865;SDS011;5992;52.744;6.898;2022-10-31T04:28:45;3.80;;;3.40;;
11865;SDS011;5992;52.744;6.898;2022-10-31T04:32:20;6.67;;;4.17;;
11865;SDS011;5992;52.744;6.898;2022-10-31T04:35:37;5.77;;;3.63;;
11865;SDS011;5992;52.744;6.898;2022-10-31T04:39:11;4.70;;;3.90;;
11865;SDS011;5992;52.744;6.898;2022-10-31T04:42:28;4.30;;;3.60;;
11865;SDS011;5992;52.744;6.898;2022-10-31T04:46:00;4.30;;;3.90;;
11865;SDS011;5992;52.744;6.898;2022-10-31T04:49:31;4.37;;;3.97;;
11865;SDS011;5992;52.744;6.898;2022-10-31T04:52:48;5.63;;;4.20;;
11865;SDS011;5992;52.744;6.898;2022-10-31T04:56:16;4.23;;;3.60;;
11865;SDS011;5992;52.744;6.898;2022-10-31T04:59:36;4.50;;;4.10;;
11865;SDS011;5992;52.744;6.898;2022-10-31T05:02:55;4.00;;;3.67;;
11865;SDS011;5992;52.744;6.898;2022-10-31T05:06:29;5.67;;;3.83;;
11865;SDS011;5992;52.744;6.898;2022-10-31T05:13:15;3.93;;;3.57;;
11865;SDS011;5992;52.744;6.898;2022-10-31T05:16:43;4.23;;;3.77;;
11865;SDS011;5992;52.744;6.898;2022-10-31T05:20:03;4.07;;;3.60;;
11865;SDS011;5992;52.744;6.898;2022-10-31T05:23:35;3.70;;;3.40;;
11865;SDS011;5992;52.744;6.898;2022-10-31T05:26:57;4.70;;;4.20;;
11865;SDS011;5992;52.744;6.898;2022-10-31T05:30:16;4.43;;;3.40;;
11865;SDS011;5992;52.744;6.898;2022-10-31T05:33:51;4.00;;;3.35;;
11865;SDS011;5992;52.744;6.898;2022-10-31T05:37:16;4.47;;;4.07;;
11865;SDS011;5992;52.744;6.898;2022-10-31T05:40:38;5.57;;;4.17;;
11865;SDS011;5992;52.744;6.898;2022-10-31T05:44:10;5.20;;;3.90;;
11865;SDS011;5992;52.744;6.898;2022-10-31T05:47:30;4.57;;;3.73;;
11865;SDS011;5992;52.744;6.898;2022-10-31T05:51:02;4.00;;;3.40;;
11865;SDS011;5992;52.744;6.898;2022-10-31T05:54:24;4.87;;;4.30;;
11865;SDS011;5992;52.744;6.898;2022-10-31T05:57:46;4.40;;;4.00;;
11865;SDS011;5992;52.744;6.898;2022-10-31T06:01:02;4.77;;;4.03;;
11865;SDS011;5992;52.744;6.898;2022-10-31T06:04:26;3.60;;;3.30;;
11865;SDS011;5992;52.744;6.898;2022-10-31T06:07:54;4.23;;;3.73;;
11865;SDS011;5992;52.744;6.898;2022-10-31T06:11:28;4.60;;;4.20;;
11865;SDS011;5992;52.744;6.898;2022-10-31T06:14:52;3.83;;;3.37;;
11865;SDS011;5992;52.744;6.898;2022-10-31T06:18:11;6.65;;;3.80;;
11865;SDS011;5992;52.744;6.898;2022-10-31T06:21:35;4.05;;;3.60;;
11865;SDS011;5992;52.744;6.898;2022-10-31T06:25:11;3.87;;;3.40;;
11865;SDS011;5992;52.744;6.898;2022-10-31T06:28:30;3.63;;;3.33;;
11865;SDS011;5992;52.744;6.898;2022-10-31T06:31:50;3.63;;;2.77;;
11865;SDS011;5992;52.744;6.898;2022-10-31T06:35:21;4.23;;;3.00;;
11865;SDS011;5992;52.744;6.898;2022-10-31T06:38:47;5.27;;;3.47;;
11865;SDS011;5992;52.744;6.898;2022-10-31T06:42:15;3.43;;;3.00;;
11865;SDS011;5992;52.744;6.898;2022-10-31T06:45:46;3.50;;;3.20;;
11865;SDS011;5992;52.744;6.898;2022-10-31T06:49:03;4.20;;;2.73;;
11865;SDS011;5992;52.744;6.898;2022-10-31T06:52:20;3.17;;;2.87;;
11865;SDS011;5992;52.744;6.898;2022-10-31T06:55:41;3.15;;;2.85;;
11865;SDS011;5992;52.744;6.898;2022-10-31T06:59:14;3.40;;;3.10;;
11865;SDS011;5992;52.744;6.898;2022-10-31T07:02:42;3.13;;;2.83;;
11865;SDS011;5992;52.744;6.898;2022-10-31T07:06:02;2.90;;;2.47;;
11865;SDS011;5992;52.744;6.898;2022-10-31T07:09:24;3.23;;;2.93;;
11865;SDS011;5992;52.744;6.898;2022-10-31T07:12:48;2.87;;;2.67;;
11865;SDS011;5992;52.744;6.898;2022-10-31T07:16:15;3.20;;;2.60;;
11865;SDS011;5992;52.744;6.898;2022-10-31T07:19:32;3.50;;;3.20;;
11865;SDS011;5992;52.744;6.898;2022-10-31T07:22:54;4.90;;;2.83;;
11865;SDS011;5992;52.744;6.898;2022-10-31T07:26:13;3.10;;;2.80;;
11865;SDS011;5992;52.744;6.898;2022-10-31T07:29:34;3.53;;;2.47;;
11865;SDS011;5992;52.744;6.898;2022-10-31T07:33:11;3.17;;;2.87;;
11865;SDS011;5992;52.744;6.898;2022-10-31T07:36:27;3.70;;;3.40;;
11865;SDS011;5992;52.744;6.898;2022-10-31T07:39:49;4.33;;;2.80;;
11865;SDS011;5992;52.744;6.898;2022-10-31T07:43:05;3.55;;;3.25;;
11865;SDS011;5992;52.744;6.898;2022-10-31T07:46:27;4.03;;;3.60;;
11865;SDS011;5992;52.744;6.898;2022-10-31T07:50:00;3.37;;;3.07;;
11865;SDS011;5992;52.744;6.898;2022-10-31T07:53:20;3.07;;;2.87;;
11865;SDS011;5992;52.744;6.898;2022-10-31T07:56:39;4.05;;;3.65;;
11865;SDS011;5992;52.744;6.898;2022-10-31T07:59:58;5.47;;;4.50;;
11865;SDS011;5992;52.744;6.898;2022-10-31T08:03:31;6.25;;;3.20;;
11865;SDS011;5992;52.744;6.898;2022-10-31T08:07:05;10.60;;;5.80;;
11865;SDS011;5992;52.744;6.898;2022-10-31T08:10:25;4.53;;;4.13;;
11865;SDS011;5992;52.744;6.898;2022-10-31T08:13:58;10.63;;;7.80;;
11865;SDS011;5992;52.744;6.898;2022-10-31T08:17:18;5.70;;;4.40;;
11865;SDS011;5992;52.744;6.898;2022-10-31T08:20:42;5.20;;;4.07;;
11865;SDS011;5992;52.744;6.898;2022-10-31T08:24:14;7.80;;;6.15;;
11865;SDS011;5992;52.744;6.898;2022-10-31T08:27:29;8.30;;;6.23;;
11865;SDS011;5992;52.744;6.898;2022-10-31T08:30:52;12.00;;;7.70;;
11865;SDS011;5992;52.744;6.898;2022-10-31T08:34:12;10.23;;;7.40;;
11865;SDS011;5992;52.744;6.898;2022-10-31T08:37:37;12.00;;;7.60;;
11865;SDS011;5992;52.744;6.898;2022-10-31T08:41:07;6.57;;;5.60;;
11865;SDS011;5992;52.744;6.898;2022-10-31T08:47:51;8.17;;;6.27;;
11865;SDS011;5992;52.744;6.898;2022-10-31T08:51:15;13.17;;;9.63;;
11865;SDS011;5992;52.744;6.898;2022-10-31T08:54:44;10.23;;;8.07;;
11865;SDS011;5992;52.744;6.898;2022-10-31T08:58:18;12.70;;;9.40;;
11865;SDS011;5992;52.744;6.898;2022-10-31T09:01:48;15.23;;;10.63;;
11865;SDS011;5992;52.744;6.898;2022-10-31T09:05:10;9.10;;;6.93;;
11865;SDS011;5992;52.744;6.898;2022-10-31T09:08:31;11.93;;;9.53;;
11865;SDS011;5992;52.744;6.898;2022-10-31T09:12:00;16.30;;;11.60;;
11865;SDS011;5992;52.744;6.898;2022-10-31T09:15:29;18.83;;;12.67;;
11865;SDS011;5992;52.744;6.898;2022-10-31T09:19:03;7.57;;;6.60;;
11865;SDS011;5992;52.744;6.898;2022-10-31T09:22:14;19.07;;;12.73;;
11865;SDS011;5992;52.744;6.898;2022-10-31T09:25:36;13.10;;;9.70;;
11865;SDS011;5992;52.744;6.898;2022-10-31T09:29:06;10.83;;;7.43;;
11865;SDS011;5992;52.744;6.898;2022-10-31T09:32:35;12.37;;;9.30;;
11865;SDS011;5992;52.744;6.898;2022-10-31T09:35:54;18.17;;;9.53;;
11865;SDS011;5992;52.744;6.898;2022-10-31T09:39:13;13.53;;;9.67;;
11865;SDS011;5992;52.744;6.898;2022-10-31T09:46:09;12.23;;;8.47;;
11865;SDS011;5992;52.744;6.898;2022-10-31T09:49:53;16.20;;;9.27;;
11865;SDS011;5992;52.744;6.898;2022-10-31T09:53:22;18.00;;;11.65;;
11865;SDS011;5992;52.744;6.898;2022-10-31T09:56:49;9.60;;;7.47;;
11865;SDS011;5992;52.744;6.898;2022-10-31T10:00:23;9.80;;;7.70;;
11865;SDS011;5992;52.744;6.898;2022-10-31T10:03:46;8.60;;;6.87;;
11865;SDS011;5992;52.744;6.898;2022-10-31T10:07:20;8.57;;;7.50;;
11865;SDS011;5992;52.744;6.898;2022-10-31T10:10:51;10.70;;;7.95;;
11865;SDS011;5992;52.744;6.898;2022-10-31T10:14:32;9.57;;;7.57;;
11865;SDS011;5992;52.744;6.898;2022-10-31T10:18:04;12.53;;;10.40;;
11865;SDS011;5992;52.744;6.898;2022-10-31T10:21:27;15.13;;;10.63;;
11865;SDS011;5992;52.744;6.898;2022-10-31T10:25:00;14.05;;;11.05;;
11865;SDS011;5992;52.744;6.898;2022-10-31T10:28:20;14.45;;;10.20;;
11865;SDS011;5992;52.744;6.898;2022-10-31T10:31:50;15.23;;;10.40;;
11865;SDS011;5992;52.744;6.898;2022-10-31T10:35:09;18.47;;;9.93;;
11865;SDS011;5992;52.744;6.898;2022-10-31T10:38:49;20.27;;;10.97;;
11865;SDS011;5992;52.744;6.898;2022-10-31T10:41:57;14.23;;;11.17;;
11865;SDS011;5992;52.744;6.898;2022-10-31T10:48:55;7.80;;;6.90;;
11865;SDS011;5992;52.744;6.898;2022-10-31T10:52:29;7.90;;;6.90;;
11865;SDS011;5992;52.744;6.898;2022-10-31T10:55:58;13.33;;;10.07;;
11865;SDS011;5992;52.744;6.898;2022-10-31T10:59:28;15.80;;;10.73;;
11865;SDS011;5992;52.744;6.898;2022-10-31T11:02:44;15.93;;;10.30;;
11865;SDS011;5992;52.744;6.898;2022-10-31T11:06:21;10.70;;;8.30;;
11865;SDS011;5992;52.744;6.898;2022-10-31T11:09:40;11.43;;;8.40;;
11865;SDS011;5992;52.744;6.898;2022-10-31T11:13:22;13.87;;;9.47;;
11865;SDS011;5992;52.744;6.898;2022-10-31T11:16:40;12.17;;;9.00;;
11865;SDS011;5992;52.744;6.898;2022-10-31T11:20:22;10.57;;;8.07;;
11865;SDS011;5992;52.744;6.898;2022-10-31T11:23:46;10.00;;;7.83;;
11865;SDS011;5992;52.744;6.898;2022-10-31T11:27:14;11.37;;;8.83;;
11865;SDS011;5992;52.744;6.898;2022-10-31T11:30:44;13.30;;;9.30;;
11865;SDS011;5992;52.744;6.898;2022-10-31T11:34:21;12.20;;;7.60;;
11865;SDS011;5992;52.744;6.898;2022-10-31T11:37:41;12.47;;;7.63;;
11865;SDS011;5992;52.744;6.898;2022-10-31T11:41:15;9.87;;;7.77;;
11865;SDS011;5992;52.744;6.898;2022-10-31T11:44:31;13.83;;;8.20;;
11865;SDS011;5992;52.744;6.898;2022-10-31T11:47:52;10.65;;;8.05;;
11865;SDS011;5992;52.744;6.898;2022-10-31T11:51:10;12.13;;;7.57;;
11865;SDS011;5992;52.744;6.898;2022-10-31T11:54:29;13.10;;;8.80;;
11865;SDS011;5992;52.744;6.898;2022-10-31T11:57:48;10.60;;;8.15;;
11865;SDS011;5992;52.744;6.898;2022-10-31T12:01:22;12.05;;;7.75;;
11865;SDS011;5992;52.744;6.898;2022-10-31T12:05:01;14.23;;;7.23;;
11865;SDS011;5992;52.744;6.898;2022-10-31T12:11:51;8.85;;;7.60;;
11865;SDS011;5992;52.744;6.898;2022-10-31T12:15:22;8.60;;;6.70;;
11865;SDS011;5992;52.744;6.898;2022-10-31T12:22:11;10.83;;;7.50;;
11865;SDS011;5992;52.744;6.898;2022-10-31T12:25:44;9.73;;;7.07;;
11865;SDS011;5992;52.744;6.898;2022-10-31T12:29:05;10.25;;;7.25;;
11865;SDS011;5992;52.744;6.898;2022-10-31T12:32:40;10.70;;;6.25;;
11865;SDS011;5992;52.744;6.898;2022-10-31T12:36:01;9.00;;;6.10;;
11865;SDS011;5992;52.744;6.898;2022-10-31T12:39:38;8.77;;;6.60;;
11865;SDS011;5992;52.744;6.898;2022-10-31T12:42:58;10.17;;;6.17;;
11865;SDS011;5992;52.744;6.898;2022-10-31T12:49:47;10.20;;;6.25;;
11865;SDS011;5992;52.744;6.898;2022-10-31T12:53:21;10.07;;;6.03;;
11865;SDS011;5992;52.744;6.898;2022-10-31T12:56:40;9.30;;;6.00;;
11865;SDS011;5992;52.744;6.898;2022-10-31T13:00:11;12.37;;;6.93;;
11865;SDS011;5992;52.744;6.898;2022-10-31T13:03:30;10.47;;;6.43;;
11865;SDS011;5992;52.744;6.898;2022-10-31T13:07:08;8.73;;;5.40;;
11865;SDS011;5992;52.744;6.898;2022-10-31T13:10:28;7.80;;;5.60;;
11865;SDS011;5992;52.744;6.898;2022-10-31T13:14:00;7.90;;;5.65;;
11865;SDS011;5992;52.744;6.898;2022-10-31T13:17:16;8.65;;;5.85;;
11865;SDS011;5992;52.744;6.898;2022-10-31T13:20:49;10.50;;;6.43;;
11865;SDS011;5992;52.744;6.898;2022-10-31T13:24:10;8.43;;;4.93;;
11865;SDS011;5992;52.744;6.898;2022-10-31T13:27:45;8.23;;;5.73;;
11865;SDS011;5992;52.744;6.898;2022-10-31T13:31:04;8.73;;;5.07;;
11865;SDS011;5992;52.744;6.898;2022-10-31T13:34:39;7.50;;;5.60;;
11865;SDS011;5992;52.744;6.898;2022-10-31T13:38:04;7.03;;;5.40;;
11865;SDS011;5992;52.744;6.898;2022-10-31T13:41:38;7.40;;;5.17;;
11865;SDS011;5992;52.744;6.898;2022-10-31T13:44:55;5.20;;;4.43;;
11865;SDS011;5992;52.744;6.898;2022-10-31T13:48:36;5.34;;;4.39;;
11865;SDS011;5992;52.744;6.898;2022-10-31T13:51:52;7.77;;;5.43;;
11865;SDS011;5992;52.744;6.898;2022-10-31T13:55:38;9.90;;;5.65;;
11865;SDS011;5992;52.744;6.898;2022-10-31T13:58:58;9.87;;;5.20;;
11865;SDS011;5992;52.744;6.898;2022-10-31T14:02:44;8.63;;;5.30;;
11865;SDS011;5992;52.744;6.898;2022-10-31T14:06:56;7.45;;;5.45;;
11865;SDS011;5992;52.744;6.898;2022-10-31T14:10:21;8.00;;;5.05;;
11865;SDS011;5992;52.744;6.898;2022-10-31T14:14:18;6.03;;;4.83;;
11865;SDS011;5992;52.744;6.898;2022-10-31T14:17:45;5.80;;;4.75;;
11865;SDS011;5992;52.744;6.898;2022-10-31T14:21:26;6.20;;;4.70;;
11865;SDS011;5992;52.744;6.898;2022-10-31T14:24:43;8.00;;;4.85;;
11865;SDS011;5992;52.744;6.898;2022-10-31T14:28:30;7.30;;;5.07;;
11865;SDS011;5992;52.744;6.898;2022-10-31T14:31:38;5.43;;;4.93;;
11865;SDS011;5992;52.744;6.898;2022-10-31T14:35:13;6.60;;;4.95;;
11865;SDS011;5992;52.744;6.898;2022-10-31T14:38:39;5.87;;;5.17;;
11865;SDS011;5992;52.744;6.898;2022-10-31T14:42:20;7.80;;;4.40;;
11865;SDS011;5992;52.744;6.898;2022-10-31T14:45:38;6.47;;;4.83;;
11865;SDS011;5992;52.744;6.898;2022-10-31T14:49:15;6.00;;;5.10;;
11865;SDS011;5992;52.744;6.898;2022-10-31T14:52:36;7.93;;;5.10;;
11865;SDS011;5992;52.744;6.898;2022-10-31T14:56:08;7.60;;;4.73;;
11865;SDS011;5992;52.744;6.898;2022-10-31T14:59:28;7.10;;;5.43;;
11865;SDS011;5992;52.744;6.898;2022-10-31T15:03:06;7.83;;;5.50;;
11865;SDS011;5992;52.744;6.898;2022-10-31T15:06:27;7.10;;;5.43;;
11865;SDS011;5992;52.744;6.898;2022-10-31T15:09:58;9.60;;;6.35;;
11865;SDS011;5992;52.744;6.898;2022-10-31T15:13:17;6.20;;;5.10;;
11865;SDS011;5992;52.744;6.898;2022-10-31T15:16:47;8.10;;;5.35;;
11865;SDS011;5992;52.744;6.898;2022-10-31T15:20:10;12.17;;;6.63;;
11865;SDS011;5992;52.744;6.898;2022-10-31T15:23:44;7.33;;;5.57;;
11865;SDS011;5992;52.744;6.898;2022-10-31T15:27:03;8.55;;;5.70;;
11865;SDS011;5992;52.744;6.898;2022-10-31T15:30:34;7.80;;;6.35;;
11865;SDS011;5992;52.744;6.898;2022-10-31T15:33:46;9.93;;;5.07;;
11865;SDS011;5992;52.744;6.898;2022-10-31T15:37:17;7.30;;;5.90;;
11865;SDS011;5992;52.744;6.898;2022-10-31T15:40:33;5.77;;;5.13;;
11865;SDS011;5992;52.744;6.898;2022-10-31T15:44:04;10.23;;;6.40;;
11865;SDS011;5992;52.744;6.898;2022-10-31T15:47:23;6.13;;;5.00;;
11865;SDS011;5992;52.744;6.898;2022-10-31T15:50:58;7.53;;;5.73;;
11865;SDS011;5992;52.744;6.898;2022-10-31T15:54:35;9.83;;;7.00;;
11865;SDS011;5992;52.744;6.898;2022-10-31T15:58:12;8.10;;;6.10;;
11865;SDS011;5992;52.744;6.898;2022-10-31T16:01:31;9.17;;;6.70;;
11865;SDS011;5992;52.744;6.898;2022-10-31T16:05:15;8.70;;;6.80;;
11865;SDS011;5992;52.744;6.898;2022-10-31T16:08:44;9.90;;;6.10;;
11865;SDS011;5992;52.744;6.898;2022-10-31T16:12:11;8.95;;;6.45;;
11865;SDS011;5992;52.744;6.898;2022-10-31T16:15:30;12.00;;;8.40;;
11865;SDS011;5992;52.744;6.898;2022-10-31T16:18:46;12.80;;;8.50;;
11865;SDS011;5992;52.744;6.898;2022-10-31T16:22:05;11.27;;;8.27;;
11865;SDS011;5992;52.744;6.898;2022-10-31T16:25:41;13.07;;;8.37;;
11865;SDS011;5992;52.744;6.898;2022-10-31T16:29:02;11.17;;;7.20;;
11865;SDS011;5992;52.744;6.898;2022-10-31T16:32:27;8.10;;;7.20;;
11865;SDS011;5992;52.744;6.898;2022-10-31T16:35:46;10.47;;;8.27;;
11865;SDS011;5992;52.744;6.898;2022-10-31T16:39:15;12.10;;;8.30;;
11865;SDS011;5992;52.744;6.898;2022-10-31T16:42:21;13.47;;;9.17;;
11865;SDS011;5992;52.744;6.898;2022-10-31T16:45:51;12.97;;;8.87;;
11865;SDS011;5992;52.744;6.898;2022-10-31T16:49:10;16.30;;;10.07;;
11865;SDS011;5992;52.744;6.898;2022-10-31T16:52:30;16.15;;;10.30;;
11865;SDS011;5992;52.744;6.898;2022-10-31T16:55:41;19.77;;;10.13;;
11865;SDS011;5992;52.744;6.898;2022-10-31T16:59:19;15.07;;;9.70;;
11865;SDS011;5992;52.744;6.898;2022-10-31T17:02:44;15.87;;;10.47;;
11865;SDS011;5992;52.744;6.898;2022-10-31T17:06:15;15.10;;;10.50;;
11865;SDS011;5992;52.744;6.898;2022-10-31T17:09:37;15.30;;;10.65;;
11865;SDS011;5992;52.744;6.898;2022-10-31T17:12:59;15.20;;;9.93;;
11865;SDS011;5992;52.744;6.898;2022-10-31T17:16:17;15.05;;;10.60;;
11865;SDS011;5992;52.744;6.898;2022-10-31T17:19:50;20.85;;;12.00;;
11865;SDS011;5992;52.744;6.898;2022-10-31T17:22:58;17.43;;;9.90;;
11865;SDS011;5992;52.744;6.898;2022-10-31T17:26:28;16.50;;;11.03;;
11865;SDS011;5992;52.744;6.898;2022-10-31T17:29:32;14.25;;;11.40;;
11865;SDS011;5992;52.744;6.898;2022-10-31T17:32:59;19.40;;;11.47;;
11865;SDS011;5992;52.744;6.898;2022-10-31T17:36:17;19.50;;;11.30;;
11865;SDS011;5992;52.744;6.898;2022-10-31T17:39:40;16.87;;;11.00;;
11865;SDS011;5992;52.744;6.898;2022-10-31T17:42:50;25.97;;;12.07;;
11865;SDS011;5992;52.744;6.898;2022-10-31T17:46:24;17.17;;;11.67;;
11865;SDS011;5992;52.744;6.898;2022-10-31T17:49:30;20.00;;;11.50;;
11865;SDS011;5992;52.744;6.898;2022-10-31T17:56:13;18.63;;;10.93;;
11865;SDS011;5992;52.744;6.898;2022-10-31T17:59:30;14.85;;;10.90;;
11865;SDS011;5992;52.744;6.898;2022-10-31T18:02:34;14.50;;;10.93;;
11865;SDS011;5992;52.744;6.898;2022-10-31T18:06:16;16.33;;;10.63;;
11865;SDS011;5992;52.744;6.898;2022-10-31T18:09:35;17.03;;;11.10;;
11865;SDS011;5992;52.744;6.898;2022-10-31T18:12:58;13.67;;;10.13;;
11865;SDS011;5992;52.744;6.898;2022-10-31T18:16:07;15.77;;;11.23;;
11865;SDS011;5992;52.744;6.898;2022-10-31T18:19:40;15.13;;;10.33;;
11865;SDS011;5992;52.744;6.898;2022-10-31T18:22:49;19.97;;;10.33;;
11865;SDS011;5992;52.744;6.898;2022-10-31T18:26:19;14.63;;;10.60;;
11865;SDS011;5992;52.744;6.898;2022-10-31T18:29:29;14.20;;;10.30;;
11865;SDS011;5992;52.744;6.898;2022-10-31T18:32:48;15.27;;;9.90;;
11865;SDS011;5992;52.744;6.898;2022-10-31T18:36:05;16.40;;;10.37;;
11865;SDS011;5992;52.744;6.898;2022-10-31T18:39:40;16.70;;;10.65;;
11865;SDS011;5992;52.744;6.898;2022-10-31T18:43:01;14.20;;;9.20;;
11865;SDS011;5992;52.744;6.898;2022-10-31T18:46:23;19.30;;;10.10;;
11865;SDS011;5992;52.744;6.898;2022-10-31T18:49:30;18.53;;;10.97;;
11865;SDS011;5992;52.744;6.898;2022-10-31T18:52:49;14.70;;;9.35;;
11865;SDS011;5992;52.744;6.898;2022-10-31T18:55:58;13.80;;;9.65;;
11865;SDS011;5992;52.744;6.898;2022-10-31T18:59:28;12.10;;;9.55;;
11865;SDS011;5992;52.744;6.898;2022-10-31T19:02:32;13.77;;;9.07;;
11865;SDS011;5992;52.744;6.898;2022-10-31T19:06:08;17.47;;;9.17;;
11865;SDS011;5992;52.744;6.898;2022-10-31T19:09:23;15.73;;;9.80;;
11865;SDS011;5992;52.744;6.898;2022-10-31T19:12:47;13.23;;;9.93;;
11865;SDS011;5992;52.744;6.898;2022-10-31T19:16:06;12.43;;;9.37;;
11865;SDS011;5992;52.744;6.898;2022-10-31T19:19:37;15.50;;;8.80;;
11865;SDS011;5992;52.744;6.898;2022-10-31T19:22:40;15.23;;;9.77;;
11865;SDS011;5992;52.744;6.898;2022-10-31T19:26:00;13.00;;;8.27;;
11865;SDS011;5992;52.744;6.898;2022-10-31T19:29:17;12.83;;;9.03;;
11865;SDS011;5992;52.744;6.898;2022-10-31T19:32:52;11.43;;;8.17;;
11865;SDS011;5992;52.744;6.898;2022-10-31T19:36:14;15.67;;;8.63;;
11865;SDS011;5992;52.744;6.898;2022-10-31T19:39:48;12.13;;;8.87;;
11865;SDS011;5992;52.744;6.898;2022-10-31T19:42:57;9.90;;;7.63;;
11865;SDS011;5992;52.744;6.898;2022-10-31T19:46:19;20.30;;;12.57;;
11865;SDS011;5992;52.744;6.898;2022-10-31T19:49:39;16.53;;;9.43;;
11865;SDS011;5992;52.744;6.898;2022-10-31T19:52:58;13.47;;;11.00;;
11865;SDS011;5992;52.744;6.898;2022-10-31T19:56:23;15.83;;;10.40;;
11865;SDS011;5992;52.744;6.898;2022-10-31T19:59:43;13.37;;;9.37;;
11865;SDS011;5992;52.744;6.898;2022-10-31T20:02:48;13.13;;;9.30;;
11865;SDS011;5992;52.744;6.898;2022-10-31T20:06:20;12.40;;;8.93;;
11865;SDS011;5992;52.744;6.898;2022-10-31T20:09:37;14.93;;;10.00;;
11865;SDS011;5992;52.744;6.898;2022-10-31T20:13:00;18.67;;;9.50;;
11865;SDS011;5992;52.744;6.898;2022-10-31T20:16:07;13.17;;;8.87;;
11865;SDS011;5992;52.744;6.898;2022-10-31T20:22:52;12.97;;;8.57;;
11865;SDS011;5992;52.744;6.898;2022-10-31T20:26:27;22.60;;;13.73;;
11865;SDS011;5992;52.744;6.898;2022-10-31T20:29:55;23.30;;;13.70;;
11865;SDS011;5992;52.744;6.898;2022-10-31T20:33:11;14.60;;;9.85;;
11865;SDS011;5992;52.744;6.898;2022-10-31T20:36:27;17.65;;;10.10;;
11865;SDS011;5992;52.744;6.898;2022-10-31T20:39:59;18.70;;;12.73;;
11865;SDS011;5992;52.744;6.898;2022-10-31T20:43:18;20.93;;;13.43;;
11865;SDS011;5992;52.744;6.898;2022-10-31T20:46:37;17.13;;;11.43;;
11865;SDS011;5992;52.744;6.898;2022-10-31T20:49:41;15.13;;;11.20;;
11865;SDS011;5992;52.744;6.898;2022-10-31T20:53:00;15.80;;;10.27;;
11865;SDS011;5992;52.744;6.898;2022-10-31T20:56:12;15.53;;;9.90;;
11865;SDS011;5992;52.744;6.898;2022-10-31T20:59:45;12.65;;;8.75;;
11865;SDS011;5992;52.744;6.898;2022-10-31T21:02:52;14.27;;;8.83;;
11865;SDS011;5992;52.744;6.898;2022-10-31T21:06:14;17.85;;;10.85;;
11865;SDS011;5992;52.744;6.898;2022-10-31T21:09:33;12.75;;;8.95;;
11865;SDS011;5992;52.744;6.898;2022-10-31T21:12:53;15.13;;;8.83;;
11865;SDS011;5992;52.744;6.898;2022-10-31T21:16:10;13.30;;;8.90;;
11865;SDS011;5992;52.744;6.898;2022-10-31T21:19:46;9.43;;;7.87;;